Time;durP1;ratioP1;P1;durP2;ratioP2;P2;SDS_P1;SDS_P2;PMS_P1;PMS_P2;Temp;Humidity;BMP_temperature;BMP_pressure;BME280_temperature;BME280_humidity;BME280_pressure;Samples;Min_cycle;Max_cycle;Signal;HPM_P1;HPM_P2
2022/06/22 00:00:15;;;;;;;5.47;3.10;;;;;;;;;;5012688;28;20018;-89
2022/06/22 00:02:43;;;;;;;6.18;3.70;;;;;;;;;;5018908;28;20022;-91
2022/06/22 00:05:18;;;;;;;4.72;3.70;;;;;;;;;;5019573;28;20054;-89
2022/06/22 00:07:54;;;;;;;8.25;3.42;;;;;;;;;;5020176;28;20023;-89
2022/06/22 00:10:22;;;;;;;6.63;3.72;;;;;;;;;;5003621;28;20038;-92
2022/06/22 00:18:57;;;;;;;4.75;2.90;;;;;;;;;;4968904;28;20071;-89
2022/06/22 00:21:23;;;;;;;3.25;2.83;;;;;;;;;;4964198;28;20550;-90
2022/06/22 00:26:47;;;;;;;4.70;2.55;;;;;;;;;;4996588;28;20100;-89
2022/06/22 00:29:22;;;;;;;8.35;3.40;;;;;;;;;;5027355;28;20034;-90
2022/06/22 00:31:48;;;;;;;4.95;2.78;;;;;;;;;;5026451;28;20466;-92
2022/06/22 00:34:19;;;;;;;7.25;2.58;;;;;;;;;;5014933;28;20033;-89
2022/06/22 00:36:57;;;;;;;2.60;2.22;;;;;;;;;;5003957;28;20027;-91
2022/06/22 00:39:44;;;;;;;3.45;2.22;;;;;;;;;;5018977;28;20026;-90
2022/06/22 00:42:15;;;;;;;3.50;2.33;;;;;;;;;;5004170;28;20227;-92
2022/06/22 00:44:54;;;;;;;7.82;2.38;;;;;;;;;;5001155;28;20034;-89
2022/06/22 00:47:32;;;;;;;3.50;2.40;;;;;;;;;;5019638;28;20058;-91
2022/06/22 00:50:18;;;;;;;4.10;2.40;;;;;;;;;;5003593;28;20026;-91
2022/06/22 00:53:07;;;;;;;3.03;2.10;;;;;;;;;;5007522;28;20025;-88
2022/06/22 00:55:40;;;;;;;3.67;2.63;;;;;;;;;;5022944;28;20057;-90
2022/06/22 00:58:06;;;;;;;4.68;2.10;;;;;;;;;;5006632;28;20014;-90
2022/06/22 01:00:34;;;;;;;5.13;2.30;;;;;;;;;;5021474;28;20083;-91
2022/06/22 01:03:13;;;;;;;3.58;2.40;;;;;;;;;;5007934;28;20173;-91
2022/06/22 01:05:45;;;;;;;6.75;3.10;;;;;;;;;;5016380;28;20038;-90
2022/06/22 01:08:24;;;;;;;6.18;2.55;;;;;;;;;;5004347;28;20065;-91
2022/06/22 01:11:03;;;;;;;3.65;2.30;;;;;;;;;;5005300;28;20038;-90
2022/06/22 01:13:37;;;;;;;4.25;2.30;;;;;;;;;;5012693;28;20021;-91
2022/06/22 01:16:22;;;;;;;5.35;2.40;;;;;;;;;;4998326;28;20031;-91
2022/06/22 01:18:57;;;;;;;5.55;2.40;;;;;;;;;;4999594;28;20019;-93
2022/06/22 01:21:28;;;;;;;3.53;2.22;;;;;;;;;;5035551;23;20102;-90
2022/06/22 01:24:22;;;;;;;4.07;2.30;;;;;;;;;;5026116;28;20033;-90
2022/06/22 01:27:07;;;;;;;4.32;2.22;;;;;;;;;;5017346;28;20034;-89
2022/06/22 01:29:33;;;;;;;5.72;2.30;;;;;;;;;;5007924;28;20450;-91
2022/06/22 01:32:01;;;;;;;3.38;1.92;;;;;;;;;;5043451;28;20047;-91
2022/06/22 01:35:02;;;;;;;2.80;1.83;;;;;;;;;;5043478;28;20061;-90
2022/06/22 01:37:44;;;;;;;3.25;1.90;;;;;;;;;;5027071;28;20033;-89
2022/06/22 01:40:15;;;;;;;3.80;2.25;;;;;;;;;;5045288;28;20031;-91
2022/06/22 01:42:49;;;;;;;2.63;1.60;;;;;;;;;;5027114;28;20113;-92
2022/06/22 01:45:24;;;;;;;7.75;2.08;;;;;;;;;;5043901;28;20033;-89
2022/06/22 01:47:52;;;;;;;3.95;1.85;;;;;;;;;;5024870;28;20021;-90
2022/06/22 01:50:25;;;;;;;5.03;2.10;;;;;;;;;;5042151;28;20017;-90
2022/06/22 01:52:52;;;;;;;5.72;2.20;;;;;;;;;;5011400;28;20540;-92
2022/06/22 01:55:25;;;;;;;2.75;1.90;;;;;;;;;;5048221;28;20014;-91
2022/06/22 01:57:55;;;;;;;2.17;1.88;;;;;;;;;;5046863;28;20022;-89
2022/06/22 02:00:21;;;;;;;2.70;1.92;;;;;;;;;;5029124;28;20097;-90
2022/06/22 02:03:26;;;;;;;5.75;1.83;;;;;;;;;;5044762;28;20032;-92
2022/06/22 02:08:59;;;;;;;2.92;1.90;;;;;;;;;;4982767;28;20102;-90
2022/06/22 02:11:32;;;;;;;2.80;1.98;;;;;;;;;;5015380;28;20035;-89
2022/06/22 02:14:00;;;;;;;5.05;2.20;;;;;;;;;;5011494;28;20077;-90
2022/06/22 02:16:45;;;;;;;4.90;2.05;;;;;;;;;;5027783;28;20025;-90
2022/06/22 02:19:15;;;;;;;4.03;2.60;;;;;;;;;;5027279;28;20033;-89
2022/06/22 02:21:46;;;;;;;6.78;2.30;;;;;;;;;;5035898;28;20033;-95
2022/06/22 02:24:15;;;;;;;7.35;2.42;;;;;;;;;;5048892;23;20041;-94
2022/06/22 02:26:48;;;;;;;3.85;2.35;;;;;;;;;;5152141;22;20030;-95
2022/06/22 02:32:21;;;;;;;5.88;2.40;;;;;;;;;;5051378;28;20024;-94
2022/06/22 02:34:48;;;;;;;3.15;1.92;;;;;;;;;;5199219;22;20398;-89
2022/06/22 02:37:23;;;;;;;3.95;1.83;;;;;;;;;;5041109;28;20030;-94
2022/06/22 02:39:56;;;;;;;4.53;2.42;;;;;;;;;;5025168;28;20030;-94
2022/06/22 02:45:08;;;;;;;4.03;2.10;;;;;;;;;;5023582;28;20050;-96
2022/06/22 02:48:06;;;;;;;2.40;2.20;;;;;;;;;;5005397;28;20038;-96
2022/06/22 02:50:39;;;;;;;2.85;1.75;;;;;;;;;;5202602;22;20033;-93
2022/06/22 02:53:07;;;;;;;5.32;2.35;;;;;;;;;;5059355;23;20038;-94
2022/06/22 02:55:34;;;;;;;3.70;2.00;;;;;;;;;;5021734;28;20054;-95
2022/06/22 02:58:02;;;;;;;3.67;2.00;;;;;;;;;;5022258;28;20007;-94
2022/06/22 03:00:35;;;;;;;2.70;1.65;;;;;;;;;;5021646;28;20041;-95
2022/06/22 03:03:07;;;;;;;5.22;1.90;;;;;;;;;;5022178;28;20038;-95
2022/06/22 03:05:34;;;;;;;8.23;2.10;;;;;;;;;;5021621;28;20200;-94
2022/06/22 03:08:02;;;;;;;3.25;1.30;;;;;;;;;;5036026;28;20002;-95
2022/06/22 03:10:40;;;;;;;3.33;1.90;;;;;;;;;;5041678;28;20010;-92
2022/06/22 03:13:06;;;;;;;3.35;2.00;;;;;;;;;;5041884;28;20057;-94
2022/06/22 03:15:36;;;;;;;2.20;1.65;;;;;;;;;;5041730;28;20026;-95
2022/06/22 03:18:02;;;;;;;1.63;1.52;;;;;;;;;;5041122;28;20011;-94
2022/06/22 03:20:31;;;;;;;3.35;2.25;;;;;;;;;;5040854;28;20025;-94
2022/06/22 03:23:06;;;;;;;4.00;1.65;;;;;;;;;;5041566;28;20017;-93
2022/06/22 03:25:37;;;;;;;1.85;1.65;;;;;;;;;;5041685;28;20018;-95
2022/06/22 03:28:05;;;;;;;4.03;2.15;;;;;;;;;;5041193;28;20006;-93
2022/06/22 03:30:35;;;;;;;7.28;1.83;;;;;;;;;;5030642;28;20034;-90
2022/06/22 03:33:06;;;;;;;2.05;1.58;;;;;;;;;;5014982;28;20037;-91
2022/06/22 03:35:34;;;;;;;2.13;1.63;;;;;;;;;;5016610;28;20461;-89
2022/06/22 03:38:09;;;;;;;3.58;1.73;;;;;;;;;;5014918;28;20022;-89
2022/06/22 03:40:43;;;;;;;3.28;2.22;;;;;;;;;;5016696;28;20029;-89
2022/06/22 03:43:12;;;;;;;7.05;2.05;;;;;;;;;;5015132;28;20049;-90
2022/06/22 03:45:41;;;;;;;5.07;1.80;;;;;;;;;;5016443;28;20030;-89
2022/06/22 03:48:19;;;;;;;2.40;2.03;;;;;;;;;;5015456;28;20033;-90
2022/06/22 03:50:49;;;;;;;2.53;1.90;;;;;;;;;;5016290;28;20225;-90
2022/06/22 03:53:36;;;;;;;3.90;1.80;;;;;;;;;;5014570;28;20025;-90
2022/06/22 03:56:04;;;;;;;4.72;1.92;;;;;;;;;;5015923;28;20080;-90
2022/06/22 03:58:30;;;;;;;2.97;1.83;;;;;;;;;;5014650;28;20033;-89
2022/06/22 04:00:58;;;;;;;4.68;2.30;;;;;;;;;;5014414;28;20636;-90
2022/06/22 04:03:24;;;;;;;5.15;2.30;;;;;;;;;;4998479;28;20034;-90
2022/06/22 04:05:53;;;;;;;2.33;1.65;;;;;;;;;;5015656;28;20382;-89
2022/06/22 04:08:27;;;;;;;4.72;2.22;;;;;;;;;;5015109;28;20121;-90
2022/06/22 04:11:05;;;;;;;4.32;2.03;;;;;;;;;;5013716;28;20061;-89
2022/06/22 04:13:51;;;;;;;3.50;2.08;;;;;;;;;;5013905;28;20040;-90
2022/06/22 04:16:19;;;;;;;5.57;2.05;;;;;;;;;;5015372;28;20486;-90
2022/06/22 04:18:54;;;;;;;4.63;2.55;;;;;;;;;;5013510;28;20026;-91
2022/06/22 04:21:22;;;;;;;3.65;2.10;;;;;;;;;;5009366;28;20398;-89
2022/06/22 04:24:11;;;;;;;5.80;2.30;;;;;;;;;;5013819;28;20080;-90
2022/06/22 04:26:40;;;;;;;3.33;2.00;;;;;;;;;;5013513;28;20022;-93
2022/06/22 04:29:30;;;;;;;2.30;1.75;;;;;;;;;;5012334;28;20045;-91
2022/06/22 04:31:58;;;;;;;4.72;1.98;;;;;;;;;;4988835;28;20046;-92
2022/06/22 04:34:32;;;;;;;3.45;2.10;;;;;;;;;;4994779;28;20030;-91
2022/06/22 04:36:58;;;;;;;5.03;2.05;;;;;;;;;;4995393;28;20054;-91
2022/06/22 04:39:33;;;;;;;2.28;1.90;;;;;;;;;;5008155;28;20374;-92
2022/06/22 04:42:00;;;;;;;3.65;2.20;;;;;;;;;;5014449;28;20101;-91
2022/06/22 04:44:29;;;;;;;4.78;2.45;;;;;;;;;;5013586;28;20052;-92
2022/06/22 04:46:57;;;;;;;3.38;1.67;;;;;;;;;;5013478;28;20553;-92
2022/06/22 04:49:31;;;;;;;4.43;2.10;;;;;;;;;;5014013;28;20125;-90
2022/06/22 04:52:18;;;;;;;2.60;1.80;;;;;;;;;;5013307;28;20048;-92
2022/06/22 04:54:44;;;;;;;3.47;2.03;;;;;;;;;;5014452;28;20026;-91
2022/06/22 04:57:19;;;;;;;2.50;2.17;;;;;;;;;;5013078;28;20100;-90
2022/06/22 04:59:45;;;;;;;4.80;2.35;;;;;;;;;;5013010;28;20045;-91
2022/06/22 05:02:13;;;;;;;1.83;1.73;;;;;;;;;;5005123;28;20532;-93
2022/06/22 05:04:41;;;;;;;13.05;2.33;;;;;;;;;;5008535;28;20041;-92
2022/06/22 05:07:12;;;;;;;1.90;1.80;;;;;;;;;;5014661;28;20030;-93
2022/06/22 05:09:43;;;;;;;2.88;1.85;;;;;;;;;;5014047;28;20458;-91
2022/06/22 05:12:21;;;;;;;2.50;1.60;;;;;;;;;;5012849;28;20021;-91
2022/06/22 05:14:52;;;;;;;4.47;2.17;;;;;;;;;;5014682;28;20034;-91
2022/06/22 05:17:21;;;;;;;2.55;1.77;;;;;;;;;;5012697;28;20026;-92
2022/06/22 05:20:00;;;;;;;3.10;1.80;;;;;;;;;;5011284;28;20018;-91
2022/06/22 05:22:26;;;;;;;2.28;1.80;;;;;;;;;;5012706;28;20029;-92
2022/06/22 05:25:15;;;;;;;3.20;2.28;;;;;;;;;;5013101;28;20103;-92
2022/06/22 05:27:51;;;;;;;6.38;1.95;;;;;;;;;;5013857;28;20058;-90
2022/06/22 05:30:17;;;;;;;2.42;2.00;;;;;;;;;;5014468;28;20026;-91
2022/06/22 05:32:46;;;;;;;3.13;2.25;;;;;;;;;;5014544;28;20018;-92
2022/06/22 05:35:16;;;;;;;8.13;1.85;;;;;;;;;;5012931;28;20065;-90
2022/06/22 05:37:50;;;;;;;4.47;1.90;;;;;;;;;;5012407;28;20045;-91
2022/06/22 05:40:17;;;;;;;3.30;1.63;;;;;;;;;;5007116;28;20022;-90
2022/06/22 05:42:43;;;;;;;4.18;1.48;;;;;;;;;;5014065;28;20022;-90
2022/06/22 05:45:17;;;;;;;2.55;1.90;;;;;;;;;;5014462;28;20041;-91
2022/06/22 05:47:47;;;;;;;2.17;1.70;;;;;;;;;;5013610;28;20029;-91
2022/06/22 05:50:19;;;;;;;3.30;1.50;;;;;;;;;;5013928;28;20026;-91
2022/06/22 05:52:46;;;;;;;2.22;1.80;;;;;;;;;;5012570;28;20026;-93
2022/06/22 05:55:18;;;;;;;2.25;1.70;;;;;;;;;;5012652;28;20143;-92
2022/06/22 05:57:45;;;;;;;8.02;1.90;;;;;;;;;;5013931;28;20026;-92
2022/06/22 06:00:42;;;;;;;2.50;2.05;;;;;;;;;;5016872;28;20058;-94
2022/06/22 06:03:15;;;;;;;3.53;1.80;;;;;;;;;;5003688;28;20038;-92
2022/06/22 06:05:44;;;;;;;4.80;2.35;;;;;;;;;;5012105;28;20030;-91
2022/06/22 06:08:22;;;;;;;6.10;1.73;;;;;;;;;;5012704;28;20018;-91
2022/06/22 06:10:48;;;;;;;2.55;1.70;;;;;;;;;;4994038;28;20551;-93
2022/06/22 06:13:44;;;;;;;5.10;2.08;;;;;;;;;;4994495;28;20034;-93
2022/06/22 06:16:36;;;;;;;1.88;1.40;;;;;;;;;;4972739;28;20445;-94
2022/06/22 06:19:05;;;;;;;2.60;1.80;;;;;;;;;;4994194;28;20023;-94
2022/06/22 06:21:36;;;;;;;5.25;2.13;;;;;;;;;;4993839;28;20509;-94
2022/06/22 06:24:19;;;;;;;1.85;1.70;;;;;;;;;;4993584;28;20034;-93
2022/06/22 06:29:57;;;;;;;10.15;2.33;;;;;;;;;;4995258;28;20118;-92
2022/06/22 06:32:27;;;;;;;3.53;2.10;;;;;;;;;;4993153;28;20033;-90
2022/06/22 06:35:12;;;;;;;3.22;2.03;;;;;;;;;;4993839;28;20034;-93
2022/06/22 06:37:44;;;;;;;3.05;2.00;;;;;;;;;;4993221;28;20031;-93
2022/06/22 06:40:30;;;;;;;7.75;2.08;;;;;;;;;;4994441;28;20038;-92
2022/06/22 06:43:13;;;;;;;3.25;2.10;;;;;;;;;;4993801;28;20393;-93
2022/06/22 06:45:40;;;;;;;6.97;1.95;;;;;;;;;;4996061;28;20410;-94
2022/06/22 06:48:08;;;;;;;5.70;2.10;;;;;;;;;;4992078;28;20438;-90
2022/06/22 06:50:37;;;;;;;4.82;1.98;;;;;;;;;;4995677;28;20229;-89
2022/06/22 06:53:22;;;;;;;2.10;1.90;;;;;;;;;;4993926;28;20530;-91
2022/06/22 06:56:08;;;;;;;3.15;2.03;;;;;;;;;;4992554;28;20038;-91
2022/06/22 06:58:48;;;;;;;4.32;2.72;;;;;;;;;;4953876;28;20035;-91
2022/06/22 07:01:35;;;;;;;5.80;2.20;;;;;;;;;;4991611;28;20478;-91
2022/06/22 07:04:07;;;;;;;3.08;2.17;;;;;;;;;;4992357;28;20437;-91
2022/06/22 07:06:33;;;;;;;4.50;2.42;;;;;;;;;;4996577;28;20030;-94
2022/06/22 07:09:09;;;;;;;4.80;2.25;;;;;;;;;;5015288;28;20145;-93
2022/06/22 07:11:44;;;;;;;4.05;2.30;;;;;;;;;;5014742;28;20026;-93
2022/06/22 07:14:14;;;;;;;4.65;3.03;;;;;;;;;;5015503;28;20033;-93
2022/06/22 07:16:41;;;;;;;4.25;2.10;;;;;;;;;;5032403;28;20081;-94
2022/06/22 07:19:21;;;;;;;6.90;2.70;;;;;;;;;;5020874;28;20113;-91
2022/06/22 07:21:48;;;;;;;3.80;2.72;;;;;;;;;;5014456;28;20030;-93
2022/06/22 07:24:31;;;;;;;5.85;2.63;;;;;;;;;;5015016;28;20033;-93
2022/06/22 07:26:57;;;;;;;5.72;2.55;;;;;;;;;;5015180;28;20033;-91
2022/06/22 07:29:23;;;;;;;5.35;2.63;;;;;;;;;;5014433;28;20034;-92
2022/06/22 07:32:08;;;;;;;2.97;2.65;;;;;;;;;;5013954;28;20486;-92
2022/06/22 07:34:36;;;;;;;4.57;2.90;;;;;;;;;;5013989;28;20081;-94
2022/06/22 07:37:28;;;;;;;4.63;2.90;;;;;;;;;;5015204;28;20030;-92
2022/06/22 07:39:57;;;;;;;3.90;2.78;;;;;;;;;;5012510;28;20030;-92
2022/06/22 07:42:24;;;;;;;5.93;3.42;;;;;;;;;;5015699;28;20157;-92
2022/06/22 07:44:50;;;;;;;8.68;3.13;;;;;;;;;;5014510;28;20022;-90
2022/06/22 07:47:25;;;;;;;4.80;3.38;;;;;;;;;;5014021;28;20034;-91
2022/06/22 07:49:51;;;;;;;5.10;3.42;;;;;;;;;;5014006;28;20029;-92
2022/06/22 07:52:21;;;;;;;5.22;3.53;;;;;;;;;;5013437;28;20372;-91
2022/06/22 07:55:16;;;;;;;5.22;3.22;;;;;;;;;;5015396;28;20034;-91
2022/06/22 07:58:05;;;;;;;4.40;3.13;;;;;;;;;;5010545;28;20129;-90
2022/06/22 08:00:33;;;;;;;4.28;3.30;;;;;;;;;;5036709;28;20018;-94
2022/06/22 08:03:01;;;;;;;6.15;3.60;;;;;;;;;;5021446;28;20030;-93
2022/06/22 08:05:31;;;;;;;7.78;4.18;;;;;;;;;;5015249;28;20033;-92
2022/06/22 08:08:02;;;;;;;4.68;3.60;;;;;;;;;;5015767;28;20079;-92
2022/06/22 08:10:31;;;;;;;4.78;3.45;;;;;;;;;;5015214;28;20080;-93
2022/06/22 08:13:00;;;;;;;10.07;3.42;;;;;;;;;;5015421;28;20022;-93
2022/06/22 08:15:28;;;;;;;3.90;3.50;;;;;;;;;;5013849;28;20021;-91
2022/06/22 08:17:55;;;;;;;6.93;3.80;;;;;;;;;;5014316;28;20022;-92
2022/06/22 08:20:25;;;;;;;6.88;4.03;;;;;;;;;;5014363;28;20152;-91
2022/06/22 08:22:51;;;;;;;4.70;3.83;;;;;;;;;;5014996;28;20029;-89
2022/06/22 08:25:19;;;;;;;5.35;3.78;;;;;;;;;;5014595;28;20018;-90
2022/06/22 08:27:45;;;;;;;4.38;3.85;;;;;;;;;;5013578;28;20033;-91
2022/06/22 08:30:12;;;;;;;5.15;4.30;;;;;;;;;;5013905;28;20113;-91
2022/06/22 08:32:43;;;;;;;5.35;3.88;;;;;;;;;;5012822;28;20030;-92
2022/06/22 08:35:22;;;;;;;3.55;3.25;;;;;;;;;;5013749;28;20536;-92
2022/06/22 08:38:00;;;;;;;8.43;4.45;;;;;;;;;;5013151;28;20037;-92
2022/06/22 08:40:52;;;;;;;7.40;4.35;;;;;;;;;;5013921;28;20026;-88
2022/06/22 08:43:37;;;;;;;8.05;4.45;;;;;;;;;;5015771;28;20026;-90
2022/06/22 08:46:22;;;;;;;6.18;5.35;;;;;;;;;;5013286;28;20029;-91
2022/06/22 08:49:09;;;;;;;5.68;4.85;;;;;;;;;;5019204;28;20029;-93
2022/06/22 08:51:52;;;;;;;7.53;6.28;;;;;;;;;;5131594;22;20057;-91
2022/06/22 08:54:30;;;;;;;5.75;5.05;;;;;;;;;;5017879;28;20069;-92
2022/06/22 08:57:03;;;;;;;8.25;5.25;;;;;;;;;;5007541;28;20092;-91
2022/06/22 08:59:29;;;;;;;7.70;5.10;;;;;;;;;;4993271;28;20545;-91
2022/06/22 09:02:03;;;;;;;10.93;5.57;;;;;;;;;;4993974;28;20026;-91
2022/06/22 09:04:34;;;;;;;8.10;5.32;;;;;;;;;;4994519;28;20023;-91
2022/06/22 09:07:00;;;;;;;8.40;5.68;;;;;;;;;;4993251;28;20517;-91
2022/06/22 09:09:36;;;;;;;8.43;5.05;;;;;;;;;;4993044;28;20054;-90
2022/06/22 09:12:21;;;;;;;8.32;5.07;;;;;;;;;;4992202;28;20026;-90
2022/06/22 09:14:59;;;;;;;10.98;5.18;;;;;;;;;;4993969;28;20062;-91
2022/06/22 09:17:37;;;;;;;7.55;5.38;;;;;;;;;;4992652;28;20027;-91
2022/06/22 09:20:19;;;;;;;7.68;5.05;;;;;;;;;;4984324;28;20019;-92
2022/06/22 09:22:44;;;;;;;;;;;;;;;;;;4975325;28;20021;-93
2022/06/22 09:25:13;;;;;;;6.97;4.88;;;;;;;;;;4974818;28;19906;-90
2022/06/22 09:27:53;;;;;;;7.95;5.38;;;;;;;;;;4973583;28;20125;-90
2022/06/22 09:30:20;;;;;;;7.47;5.10;;;;;;;;;;4972504;28;20049;-89
2022/06/22 09:32:46;;;;;;;7.78;5.13;;;;;;;;;;4972677;28;20178;-90
2022/06/22 09:35:36;;;;;;;6.88;4.75;;;;;;;;;;4974567;28;20471;-91
2022/06/22 09:38:13;;;;;;;8.48;5.30;;;;;;;;;;4973968;28;20033;-90
2022/06/22 09:40:47;;;;;;;6.72;4.97;;;;;;;;;;4973820;28;20029;-91
2022/06/22 09:43:32;;;;;;;8.68;5.32;;;;;;;;;;4972392;28;20022;-88
2022/06/22 09:46:03;;;;;;;8.38;5.25;;;;;;;;;;4973619;28;20038;-89
2022/06/22 09:48:48;;;;;;;7.88;6.03;;;;;;;;;;4972852;28;20027;-91
2022/06/22 09:51:32;;;;;;;9.75;5.88;;;;;;;;;;4972401;28;20050;-91
2022/06/22 09:57:38;;;;;;;8.55;5.72;;;;;;;;;;4969920;28;20034;-91
2022/06/22 10:00:09;;;;;;;9.52;5.40;;;;;;;;;;4957774;28;20031;-91
2022/06/22 10:02:58;;;;;;;6.05;4.90;;;;;;;;;;4977530;28;20027;-90
2022/06/22 10:05:39;;;;;;;8.30;5.35;;;;;;;;;;4982393;28;20073;-90
2022/06/22 10:08:05;;;;;;;;;;;;;;;;;;4976381;28;20085;-90
2022/06/22 10:10:41;;;;;;;5.72;4.68;;;;;;;;;;4976568;28;19909;-89
2022/06/22 10:13:11;;;;;;;7.65;5.05;;;;;;;;;;4973699;28;20030;-88
2022/06/22 10:15:37;;;;;;;6.60;5.10;;;;;;;;;;4974717;28;20114;-91
2022/06/22 10:24:53;;;;;;;;;;;;;;;;;;;;;
2022/06/22 10:27:40;;;;;;;6.78;5.55;;;;;;;;;;5017642;28;20454;-85
2022/06/22 10:30:31;;;;;;;8.57;5.68;;;;;;;;;;4992389;28;20038;-84
2022/06/22 10:33:03;;;;;;;7.50;5.88;;;;;;;;;;4992137;28;20431;-84
2022/06/22 10:35:42;;;;;;;9.40;5.78;;;;;;;;;;4992367;28;20038;-85
2022/06/22 10:38:27;;;;;;;9.65;5.68;;;;;;;;;;4992179;28;20019;-84
2022/06/22 10:47:06;;;;;;;10.48;6.63;;;;;;;;;;4992093;28;20062;-83
2022/06/22 10:49:53;;;;;;;8.80;5.70;;;;;;;;;;4992198;28;20372;-83
2022/06/22 10:52:38;;;;;;;;;;;;;;;;;;;;;
2022/06/22 10:58:53;;;;;;;11.75;6.20;;;;;;;;;;4995726;28;20042;-84
2022/06/22 11:01:19;;;;;;;6.72;6.13;;;;;;;;;;4995417;28;20023;-84
2022/06/22 11:03:58;;;;;;;9.52;6.97;;;;;;;;;;4996000;28;20273;-83
2022/06/22 11:06:49;;;;;;;10.77;6.13;;;;;;;;;;4995721;28;20479;-83
2022/06/22 11:09:15;;;;;;;9.32;5.35;;;;;;;;;;4979108;28;20474;-83
2022/06/22 11:11:41;;;;;;;9.45;6.38;;;;;;;;;;4997342;28;20034;-84
2022/06/22 11:14:07;;;;;;;8.43;5.75;;;;;;;;;;5000987;28;20026;-82
2022/06/22 11:16:51;;;;;;;10.23;6.50;;;;;;;;;;5018257;28;20066;-83
2022/06/22 11:19:20;;;;;;;14.90;6.20;;;;;;;;;;4995867;28;20045;-84
2022/06/22 11:21:55;;;;;;;10.80;6.00;;;;;;;;;;4995146;28;20028;-83
2022/06/22 11:24:27;;;;;;;12.50;6.18;;;;;;;;;;4978016;28;20034;-84
2022/06/22 11:32:51;;;;;;;9.30;6.68;;;;;;;;;;4995466;28;20033;-84
2022/06/22 11:35:31;;;;;;;9.23;6.43;;;;;;;;;;4995406;28;20029;-85
2022/06/22 11:38:07;;;;;;;12.75;7.47;;;;;;;;;;4994908;28;20574;-85
2022/06/22 11:40:51;;;;;;;8.10;6.38;;;;;;;;;;4995356;28;20027;-84
2022/06/22 11:43:36;;;;;;;13.35;7.20;;;;;;;;;;4979099;28;20022;-84
2022/06/22 11:46:15;;;;;;;10.18;7.20;;;;;;;;;;4996339;28;20106;-84
2022/06/22 11:48:56;;;;;;;8.82;7.13;;;;;;;;;;4994621;28;20022;-84
2022/06/22 11:51:45;;;;;;;7.35;6.63;;;;;;;;;;4994252;28;20042;-86
2022/06/22 11:54:17;;;;;;;10.88;7.18;;;;;;;;;;4967236;28;20034;-86
2022/06/22 11:56:52;;;;;;;12.80;8.30;;;;;;;;;;4994338;28;20054;-84
2022/06/22 11:59:21;;;;;;;14.45;8.15;;;;;;;;;;4994326;28;20717;-86
2022/06/22 12:01:53;;;;;;;13.88;8.93;;;;;;;;;;4976869;28;20080;-88
2022/06/22 12:04:45;;;;;;;14.98;9.00;;;;;;;;;;4994667;28;20030;-86
2022/06/22 12:07:14;;;;;;;15.75;8.57;;;;;;;;;;4989662;28;20037;-86
2022/06/22 12:10:03;;;;;;;14.60;8.30;;;;;;;;;;4976862;28;20026;-87
2022/06/22 12:12:43;;;;;;;12.75;7.97;;;;;;;;;;4993408;28;20061;-86
2022/06/22 12:15:28;;;;;;;10.82;7.63;;;;;;;;;;4976844;28;20041;-86
2022/06/22 12:18:12;;;;;;;12.02;8.25;;;;;;;;;;4994125;28;20041;-86
2022/06/22 12:20:38;;;;;;;11.15;8.55;;;;;;;;;;4993795;28;20030;-86
2022/06/22 12:23:23;;;;;;;10.02;8.10;;;;;;;;;;4994749;28;20050;-86
2022/06/22 12:26:18;;;;;;;16.27;8.77;;;;;;;;;;4976571;28;20030;-86
2022/06/22 12:28:44;;;;;;;14.63;9.40;;;;;;;;;;4966822;28;20537;-86
2022/06/22 12:31:10;;;;;;;15.35;7.63;;;;;;;;;;4993720;28;20027;-87
2022/06/22 12:33:36;;;;;;;19.63;7.22;;;;;;;;;;4993765;28;20359;-86
2022/06/22 12:36:14;;;;;;;15.52;7.88;;;;;;;;;;4976196;28;20026;-86
2022/06/22 12:38:40;;;;;;;15.38;8.00;;;;;;;;;;4975982;28;20089;-87
2022/06/22 12:41:40;;;;;;;12.57;8.95;;;;;;;;;;4993535;28;20018;-86
2022/06/22 12:44:38;;;;;;;;;;;;;;;;;;;;;
2022/06/22 12:53:16;;;;;;;13.55;8.05;;;;;;;;;;4997587;28;20110;-86
2022/06/22 12:56:13;;;;;;;;;;;;;;;;;;;;;
2022/06/22 12:58:43;;;;;;;11.85;7.07;;;;;;;;;;5041161;28;20032;-86
2022/06/22 13:01:09;;;;;;;13.68;6.95;;;;;;;;;;5014974;28;20021;-86
2022/06/22 13:03:44;;;;;;;9.88;5.55;;;;;;;;;;5032849;28;20033;-86
2022/06/22 13:06:52;;;;;;;;;;;;;;;;;;;;;
2022/06/22 13:09:38;;;;;;;14.13;6.82;;;;;;;;;;5018889;28;20432;-87
2022/06/22 13:12:14;;;;;;;8.82;6.55;;;;;;;;;;5030720;28;20068;-86
2022/06/22 13:15:00;;;;;;;12.32;7.30;;;;;;;;;;5033064;28;20026;-86
2022/06/22 13:17:29;;;;;;;10.05;6.78;;;;;;;;;;5014974;28;20032;-86
2022/06/22 13:20:14;;;;;;;12.27;6.70;;;;;;;;;;5014457;28;20025;-86
2022/06/22 13:22:45;;;;;;;12.00;7.57;;;;;;;;;;5032916;28;20029;-86
2022/06/22 13:25:32;;;;;;;12.23;7.82;;;;;;;;;;5014991;28;20021;-85
2022/06/22 13:28:10;;;;;;;12.35;8.15;;;;;;;;;;5014432;28;20324;-86
2022/06/22 13:30:36;;;;;;;12.90;7.95;;;;;;;;;;5032508;28;20390;-86
2022/06/22 13:33:07;;;;;;;13.25;7.97;;;;;;;;;;5015040;28;20022;-86
2022/06/22 13:35:38;;;;;;;17.92;7.63;;;;;;;;;;5032236;28;20056;-87
2022/06/22 13:38:04;;;;;;;13.32;7.07;;;;;;;;;;5032501;28;20030;-86
2022/06/22 13:40:38;;;;;;;11.15;7.43;;;;;;;;;;5014308;28;20025;-86
2022/06/22 13:43:23;;;;;;;11.75;8.23;;;;;;;;;;5032296;28;20048;-87
2022/06/22 13:46:01;;;;;;;10.57;7.60;;;;;;;;;;5018390;28;20309;-86
2022/06/22 13:48:40;;;;;;;13.98;7.78;;;;;;;;;;5014449;28;20030;-86
2022/06/22 13:51:37;;;;;;;14.70;7.93;;;;;;;;;;5032440;28;20074;-86
2022/06/22 13:54:12;;;;;;;11.73;7.45;;;;;;;;;;5015077;28;20504;-86
2022/06/22 13:56:54;;;;;;;11.63;7.40;;;;;;;;;;5032189;28;20065;-86
2022/06/22 13:59:29;;;;;;;10.60;7.22;;;;;;;;;;5032269;28;20026;-86
2022/06/22 14:02:03;;;;;;;15.20;7.45;;;;;;;;;;5032047;28;20026;-86
2022/06/22 14:04:31;;;;;;;12.13;7.18;;;;;;;;;;5031939;28;20029;-86
2022/06/22 14:07:22;;;;;;;13.85;6.70;;;;;;;;;;5031955;28;20021;-86
2022/06/22 14:09:52;;;;;;;11.68;7.80;;;;;;;;;;5047622;28;20394;-85
2022/06/22 14:12:24;;;;;;;13.85;8.05;;;;;;;;;;5047296;28;20441;-85
2022/06/22 14:15:05;;;;;;;13.50;7.93;;;;;;;;;;5047967;28;20387;-86
2022/06/22 14:17:44;;;;;;;12.07;7.07;;;;;;;;;;5031705;28;20025;-85
2022/06/22 14:20:16;;;;;;;14.85;8.27;;;;;;;;;;5031933;28;20025;-85
2022/06/22 14:22:48;;;;;;;13.15;7.50;;;;;;;;;;5015489;28;20112;-86
2022/06/22 14:25:36;;;;;;;13.52;7.50;;;;;;;;;;5032795;28;20021;-86
2022/06/22 14:28:11;;;;;;;10.30;6.53;;;;;;;;;;5014506;28;20037;-86
2022/06/22 14:30:48;;;;;;;11.27;7.88;;;;;;;;;;5032989;28;20036;-86
2022/06/22 14:33:14;;;;;;;12.05;7.30;;;;;;;;;;5035982;28;20033;-86
2022/06/22 14:35:46;;;;;;;15.88;7.15;;;;;;;;;;5019155;28;20481;-87
2022/06/22 14:38:22;;;;;;;12.65;8.18;;;;;;;;;;5018244;28;20065;-85
2022/06/22 14:40:52;;;;;;;14.50;7.72;;;;;;;;;;5035618;28;20026;-86
2022/06/22 14:43:31;;;;;;;12.13;7.55;;;;;;;;;;5017942;28;20112;-87
2022/06/22 14:46:24;;;;;;;13.88;8.27;;;;;;;;;;5017884;28;20080;-86
2022/06/22 14:49:04;;;;;;;11.63;8.13;;;;;;;;;;5031208;28;20043;-85
2022/06/22 14:51:36;;;;;;;18.10;8.95;;;;;;;;;;5018110;28;20117;-85
2022/06/22 14:54:12;;;;;;;11.77;7.70;;;;;;;;;;5017759;28;20386;-85
2022/06/22 14:56:42;;;;;;;15.98;8.10;;;;;;;;;;5017436;28;20601;-85
2022/06/22 14:59:08;;;;;;;14.27;7.72;;;;;;;;;;5017958;28;20573;-86
2022/06/22 15:01:40;;;;;;;12.55;7.30;;;;;;;;;;5016996;28;20061;-85
2022/06/22 15:04:30;;;;;;;14.95;7.68;;;;;;;;;;5017671;28;20442;-85
2022/06/22 15:06:59;;;;;;;12.80;7.10;;;;;;;;;;5009881;28;20112;-84
2022/06/22 15:09:32;;;;;;;13.70;6.97;;;;;;;;;;5035876;28;20442;-86
2022/06/22 15:14:58;;;;;;;16.23;7.95;;;;;;;;;;5059755;28;20057;-84
2022/06/22 15:17:50;;;;;;;16.10;8.15;;;;;;;;;;5035072;28;20072;-84
2022/06/22 15:20:19;;;;;;;13.90;7.55;;;;;;;;;;5034365;28;20038;-84
2022/06/22 15:22:45;;;;;;;16.10;7.05;;;;;;;;;;5047957;28;20025;-85
2022/06/22 15:25:14;;;;;;;16.85;7.97;;;;;;;;;;5034408;28;20032;-85
2022/06/22 15:27:45;;;;;;;14.55;8.55;;;;;;;;;;5021602;28;20029;-84
2022/06/22 15:30:17;;;;;;;12.75;7.93;;;;;;;;;;5035089;28;20080;-85
2022/06/22 15:32:53;;;;;;;16.60;8.40;;;;;;;;;;5035350;28;20026;-86
2022/06/22 15:35:24;;;;;;;20.35;9.75;;;;;;;;;;5016795;28;20038;-85
2022/06/22 15:37:50;;;;;;;;;;;;;;;;;;5006492;28;20396;-85
2022/06/22 15:40:19;;;;;;;18.58;10.07;;;;;;;;;;5034351;28;19920;-85
2022/06/22 15:42:47;;;;;;;17.30;10.80;;;;;;;;;;5033780;28;20055;-85
2022/06/22 15:45:16;;;;;;;19.75;9.80;;;;;;;;;;5034660;28;20112;-87
2022/06/22 15:47:49;;;;;;;21.15;10.95;;;;;;;;;;5017702;28;20025;-86
2022/06/22 15:50:38;;;;;;;23.70;10.80;;;;;;;;;;5033325;28;20032;-85
2022/06/22 15:53:09;;;;;;;22.75;10.73;;;;;;;;;;5016574;28;20026;-86
2022/06/22 15:55:54;;;;;;;16.83;10.65;;;;;;;;;;5016880;28;20032;-86
2022/06/22 15:58:32;;;;;;;17.88;11.13;;;;;;;;;;5083075;23;20049;-87
2022/06/22 16:01:15;;;;;;;24.00;11.00;;;;;;;;;;5016602;28;20116;-87
2022/06/22 16:03:59;;;;;;;18.50;11.98;;;;;;;;;;5034455;28;20037;-87
2022/06/22 16:06:46;;;;;;;20.92;10.73;;;;;;;;;;5016422;28;20034;-87
2022/06/22 16:15:18;;;;;;;23.00;11.57;;;;;;;;;;5035167;28;20109;-87
2022/06/22 16:17:55;;;;;;;23.20;12.00;;;;;;;;;;5033719;28;20033;-87
2022/06/22 16:20:37;;;;;;;24.50;12.50;;;;;;;;;;5051836;22;20050;-89
2022/06/22 16:23:22;;;;;;;26.67;11.18;;;;;;;;;;5013878;28;20044;-90
2022/06/22 16:25:50;;;;;;;15.65;10.48;;;;;;;;;;4992816;28;20406;-90
2022/06/22 16:28:23;;;;;;;18.35;11.50;;;;;;;;;;5003204;28;20141;-91
2022/06/22 16:31:07;;;;;;;23.52;9.68;;;;;;;;;;4994335;28;20041;-91